Terminal Aerodrome Forecast
Issued by NWS

Home | Current Version | Previous Version | Text Only | Print | Product List | Glossary On
Versions: 1 2 3 4 5 6 7 8 9 10 11 12
000
FTUS42 KTBW 010522
TAFPGD
TAF
KPGD 010522Z 0106/0206 10004KT P6SM FEW250
     FM010900 VRB03KT 6SM BR FEW005
     FM011400 06005KT P6SM SCT020 SCT250
     FM011800 07006KT P6SM VCTS SCT035CB SCT250
     FM020100 06004KT P6SM SCT040 SCT250=

USA.gov is the U.S. government's official web portal to all federal, state and local government web resources and services.